Terminal Aerodrome Forecast
Issued by NWS

Current Version | Previous Version | Graphics & Text | Print | Product List | Glossary On
Versions: 1 2 3 4 5 6 7 8 9 10 11 12 13 14 15 16 17 18 19 20 21 22 23 24 25 26 27 28
000
FTUS41 KRLX 181100
TAFCKB
TAF
KCKB 181126Z 1812/1912 00000KT 3SM BR BKN080
     FM181400 VRB04KT P6SM BKN035
     FM181600 12004KT 6SM SHRA BR VCTS OVC035CB
     FM190000 00000KT P6SM BKN040
     FM190200 00000KT 4SM BR BKN030
     FM190500 00000KT 2SM BR BKN015=

USA.gov is the U.S. government's official web portal to all federal, state and local government web resources and services.